sensor_id;sensor_type;location;lat;lon;timestamp;P1;durP1;ratioP1;P2;durP2;ratioP2
33579;SDS011;19909;43.644;-79.438;2024-02-26T00:01:42;2.58;;;1.60;;
33579;SDS011;19909;43.644;-79.438;2024-02-26T00:04:11;3.15;;;1.80;;
33579;SDS011;19909;43.644;-79.438;2024-02-26T00:06:39;2.75;;;1.98;;
33579;SDS011;19909;43.644;-79.438;2024-02-26T00:09:07;2.70;;;1.67;;
33579;SDS011;19909;43.644;-79.438;2024-02-26T00:11:37;2.47;;;1.67;;
33579;SDS011;19909;43.644;-79.438;2024-02-26T00:14:03;3.75;;;2.10;;
33579;SDS011;19909;43.644;-79.438;2024-02-26T00:16:30;3.40;;;1.83;;
33579;SDS011;19909;43.644;-79.438;2024-02-26T00:18:57;4.75;;;1.70;;
33579;SDS011;19909;43.644;-79.438;2024-02-26T00:21:23;2.25;;;1.70;;
33579;SDS011;19909;43.644;-79.438;2024-02-26T00:23:50;2.40;;;1.90;;
33579;SDS011;19909;43.644;-79.438;2024-02-26T00:26:17;4.13;;;1.83;;
33579;SDS011;19909;43.644;-79.438;2024-02-26T00:28:43;3.10;;;1.92;;
33579;SDS011;19909;43.644;-79.438;2024-02-26T00:31:09;3.05;;;1.58;;
33579;SDS011;19909;43.644;-79.438;2024-02-26T00:33:37;1.75;;;1.30;;
33579;SDS011;19909;43.644;-79.438;2024-02-26T00:36:03;4.95;;;1.63;;
33579;SDS011;19909;43.644;-79.438;2024-02-26T00:38:30;2.25;;;1.55;;
33579;SDS011;19909;43.644;-79.438;2024-02-26T00:40:57;1.67;;;1.10;;
33579;SDS011;19909;43.644;-79.438;2024-02-26T00:43:23;1.55;;;0.90;;
33579;SDS011;19909;43.644;-79.438;2024-02-26T00:45:50;1.83;;;1.13;;
33579;SDS011;19909;43.644;-79.438;2024-02-26T00:48:18;1.67;;;1.27;;
33579;SDS011;19909;43.644;-79.438;2024-02-26T00:50:44;2.83;;;1.63;;
33579;SDS011;19909;43.644;-79.438;2024-02-26T00:53:10;2.33;;;1.65;;
33579;SDS011;19909;43.644;-79.438;2024-02-26T00:55:36;2.92;;;1.73;;
33579;SDS011;19909;43.644;-79.438;2024-02-26T00:58:02;3.97;;;2.50;;
33579;SDS011;19909;43.644;-79.438;2024-02-26T01:00:29;2.85;;;2.30;;
33579;SDS011;19909;43.644;-79.438;2024-02-26T01:02:55;3.90;;;2.80;;
33579;SDS011;19909;43.644;-79.438;2024-02-26T01:05:22;4.30;;;2.63;;
33579;SDS011;19909;43.644;-79.438;2024-02-26T01:07:48;3.55;;;2.55;;
33579;SDS011;19909;43.644;-79.438;2024-02-26T01:10:15;3.58;;;2.72;;
33579;SDS011;19909;43.644;-79.438;2024-02-26T01:12:41;5.70;;;2.83;;
33579;SDS011;19909;43.644;-79.438;2024-02-26T01:15:07;2.90;;;2.60;;
33579;SDS011;19909;43.644;-79.438;2024-02-26T01:17:34;3.20;;;2.60;;
33579;SDS011;19909;43.644;-79.438;2024-02-26T01:20:00;3.15;;;2.40;;
33579;SDS011;19909;43.644;-79.438;2024-02-26T01:22:27;4.03;;;3.00;;
33579;SDS011;19909;43.644;-79.438;2024-02-26T01:24:53;5.28;;;4.30;;
33579;SDS011;19909;43.644;-79.438;2024-02-26T01:27:19;13.85;;;10.55;;
33579;SDS011;19909;43.644;-79.438;2024-02-26T01:29:45;28.45;;;23.25;;
33579;SDS011;19909;43.644;-79.438;2024-02-26T01:32:11;50.65;;;40.80;;
33579;SDS011;19909;43.644;-79.438;2024-02-26T01:34:38;58.88;;;47.40;;
33579;SDS011;19909;43.644;-79.438;2024-02-26T01:37:04;60.13;;;53.03;;
33579;SDS011;19909;43.644;-79.438;2024-02-26T01:39:30;61.42;;;52.13;;
33579;SDS011;19909;43.644;-79.438;2024-02-26T01:41:56;55.80;;;48.03;;
33579;SDS011;19909;43.644;-79.438;2024-02-26T01:44:22;60.72;;;52.55;;
33579;SDS011;19909;43.644;-79.438;2024-02-26T01:46:49;58.38;;;50.53;;
33579;SDS011;19909;43.644;-79.438;2024-02-26T01:49:15;50.17;;;44.65;;
33579;SDS011;19909;43.644;-79.438;2024-02-26T01:51:42;47.22;;;42.00;;
33579;SDS011;19909;43.644;-79.438;2024-02-26T01:54:10;43.67;;;38.88;;
33579;SDS011;19909;43.644;-79.438;2024-02-26T01:56:37;41.67;;;37.10;;
33579;SDS011;19909;43.644;-79.438;2024-02-26T01:59:05;40.97;;;35.67;;
33579;SDS011;19909;43.644;-79.438;2024-02-26T02:01:33;43.30;;;35.75;;
33579;SDS011;19909;43.644;-79.438;2024-02-26T02:04:00;36.30;;;32.42;;
33579;SDS011;19909;43.644;-79.438;2024-02-26T02:06:26;34.38;;;30.20;;
33579;SDS011;19909;43.644;-79.438;2024-02-26T02:08:56;34.88;;;31.30;;
33579;SDS011;19909;43.644;-79.438;2024-02-26T02:11:22;33.03;;;29.50;;
33579;SDS011;19909;43.644;-79.438;2024-02-26T02:13:48;33.53;;;29.85;;
33579;SDS011;19909;43.644;-79.438;2024-02-26T02:16:15;31.58;;;28.15;;
33579;SDS011;19909;43.644;-79.438;2024-02-26T02:18:42;32.85;;;27.83;;
33579;SDS011;19909;43.644;-79.438;2024-02-26T02:21:08;30.05;;;26.95;;
33579;SDS011;19909;43.644;-79.438;2024-02-26T02:23:34;29.13;;;25.40;;
33579;SDS011;19909;43.644;-79.438;2024-02-26T02:26:02;25.83;;;23.13;;
33579;SDS011;19909;43.644;-79.438;2024-02-26T02:28:28;26.38;;;23.42;;
33579;SDS011;19909;43.644;-79.438;2024-02-26T02:30:54;27.50;;;21.50;;
33579;SDS011;19909;43.644;-79.438;2024-02-26T02:33:21;20.77;;;18.55;;
33579;SDS011;19909;43.644;-79.438;2024-02-26T02:35:48;21.60;;;18.73;;
33579;SDS011;19909;43.644;-79.438;2024-02-26T02:38:16;20.88;;;18.67;;
33579;SDS011;19909;43.644;-79.438;2024-02-26T02:40:42;19.88;;;17.75;;
33579;SDS011;19909;43.644;-79.438;2024-02-26T02:43:08;22.83;;;20.00;;
33579;SDS011;19909;43.644;-79.438;2024-02-26T02:45:36;23.92;;;21.17;;
33579;SDS011;19909;43.644;-79.438;2024-02-26T02:48:03;20.42;;;18.33;;
33579;SDS011;19909;43.644;-79.438;2024-02-26T02:50:29;21.30;;;18.92;;
33579;SDS011;19909;43.644;-79.438;2024-02-26T02:52:56;20.20;;;17.98;;
33579;SDS011;19909;43.644;-79.438;2024-02-26T02:55:22;20.48;;;17.45;;
33579;SDS011;19909;43.644;-79.438;2024-02-26T02:57:48;19.02;;;15.95;;
33579;SDS011;19909;43.644;-79.438;2024-02-26T03:00:14;16.40;;;14.48;;
33579;SDS011;19909;43.644;-79.438;2024-02-26T03:02:40;17.02;;;15.20;;
33579;SDS011;19909;43.644;-79.438;2024-02-26T03:05:08;16.38;;;14.63;;
33579;SDS011;19909;43.644;-79.438;2024-02-26T03:07:34;15.77;;;14.13;;
33579;SDS011;19909;43.644;-79.438;2024-02-26T03:10:00;15.95;;;13.48;;
33579;SDS011;19909;43.644;-79.438;2024-02-26T03:12:27;17.02;;;14.88;;
33579;SDS011;19909;43.644;-79.438;2024-02-26T03:14:53;16.52;;;14.68;;
33579;SDS011;19909;43.644;-79.438;2024-02-26T03:17:20;16.23;;;14.52;;
33579;SDS011;19909;43.644;-79.438;2024-02-26T03:19:46;17.73;;;15.82;;
33579;SDS011;19909;43.644;-79.438;2024-02-26T03:22:18;17.25;;;15.40;;
33579;SDS011;19909;43.644;-79.438;2024-02-26T03:24:45;17.30;;;15.52;;
33579;SDS011;19909;43.644;-79.438;2024-02-26T03:27:12;14.52;;;13.02;;
33579;SDS011;19909;43.644;-79.438;2024-02-26T03:29:40;16.60;;;13.00;;
33579;SDS011;19909;43.644;-79.438;2024-02-26T03:32:06;13.20;;;11.90;;
33579;SDS011;19909;43.644;-79.438;2024-02-26T03:34:33;13.63;;;11.68;;
33579;SDS011;19909;43.644;-79.438;2024-02-26T03:37:00;13.05;;;11.75;;
33579;SDS011;19909;43.644;-79.438;2024-02-26T03:39:26;12.85;;;11.50;;
33579;SDS011;19909;43.644;-79.438;2024-02-26T03:41:52;13.25;;;11.88;;
33579;SDS011;19909;43.644;-79.438;2024-02-26T03:44:19;16.55;;;13.05;;
33579;SDS011;19909;43.644;-79.438;2024-02-26T03:46:45;16.05;;;13.27;;
33579;SDS011;19909;43.644;-79.438;2024-02-26T03:49:12;13.68;;;10.90;;
33579;SDS011;19909;43.644;-79.438;2024-02-26T03:51:38;12.43;;;10.68;;
33579;SDS011;19909;43.644;-79.438;2024-02-26T03:54:05;13.02;;;10.18;;
33579;SDS011;19909;43.644;-79.438;2024-02-26T03:56:31;10.10;;;9.10;;
33579;SDS011;19909;43.644;-79.438;2024-02-26T03:58:57;10.65;;;9.45;;
33579;SDS011;19909;43.644;-79.438;2024-02-26T04:01:25;10.43;;;9.38;;
33579;SDS011;19909;43.644;-79.438;2024-02-26T04:03:51;9.75;;;8.65;;
33579;SDS011;19909;43.644;-79.438;2024-02-26T04:06:18;12.20;;;10.32;;
33579;SDS011;19909;43.644;-79.438;2024-02-26T04:08:46;11.00;;;9.65;;
33579;SDS011;19909;43.644;-79.438;2024-02-26T04:11:14;9.25;;;8.30;;
33579;SDS011;19909;43.644;-79.438;2024-02-26T04:13:43;8.10;;;7.30;;
33579;SDS011;19909;43.644;-79.438;2024-02-26T04:16:16;8.00;;;7.20;;
33579;SDS011;19909;43.644;-79.438;2024-02-26T04:18:43;8.30;;;7.50;;
33579;SDS011;19909;43.644;-79.438;2024-02-26T04:21:09;9.30;;;6.85;;
33579;SDS011;19909;43.644;-79.438;2024-02-26T04:23:35;7.82;;;6.82;;
33579;SDS011;19909;43.644;-79.438;2024-02-26T04:26:02;8.35;;;7.07;;
33579;SDS011;19909;43.644;-79.438;2024-02-26T04:28:29;9.25;;;7.72;;
33579;SDS011;19909;43.644;-79.438;2024-02-26T04:30:55;8.00;;;7.20;;
33579;SDS011;19909;43.644;-79.438;2024-02-26T04:33:22;7.93;;;6.93;;
33579;SDS011;19909;43.644;-79.438;2024-02-26T04:35:48;6.07;;;5.55;;
33579;SDS011;19909;43.644;-79.438;2024-02-26T04:38:15;7.68;;;5.70;;
33579;SDS011;19909;43.644;-79.438;2024-02-26T04:40:41;6.15;;;5.55;;
33579;SDS011;19909;43.644;-79.438;2024-02-26T04:43:07;5.90;;;5.30;;
33579;SDS011;19909;43.644;-79.438;2024-02-26T04:45:34;6.18;;;5.57;;
33579;SDS011;19909;43.644;-79.438;2024-02-26T04:48:01;6.80;;;6.13;;
33579;SDS011;19909;43.644;-79.438;2024-02-26T04:50:28;6.80;;;6.07;;
33579;SDS011;19909;43.644;-79.438;2024-02-26T04:52:57;6.03;;;5.43;;
33579;SDS011;19909;43.644;-79.438;2024-02-26T04:55:24;5.90;;;5.30;;
33579;SDS011;19909;43.644;-79.438;2024-02-26T04:57:50;6.35;;;5.47;;
33579;SDS011;19909;43.644;-79.438;2024-02-26T05:00:17;6.40;;;4.90;;
33579;SDS011;19909;43.644;-79.438;2024-02-26T05:02:43;5.70;;;5.10;;
33579;SDS011;19909;43.644;-79.438;2024-02-26T05:05:09;5.18;;;4.68;;
33579;SDS011;19909;43.644;-79.438;2024-02-26T05:07:41;5.80;;;4.82;;
33579;SDS011;19909;43.644;-79.438;2024-02-26T05:10:08;4.80;;;4.30;;
33579;SDS011;19909;43.644;-79.438;2024-02-26T05:12:35;4.72;;;4.28;;
33579;SDS011;19909;43.644;-79.438;2024-02-26T05:15:02;5.38;;;4.40;;
33579;SDS011;19909;43.644;-79.438;2024-02-26T05:17:28;5.32;;;4.80;;
33579;SDS011;19909;43.644;-79.438;2024-02-26T05:19:54;5.35;;;3.95;;
33579;SDS011;19909;43.644;-79.438;2024-02-26T05:22:21;4.28;;;3.88;;
33579;SDS011;19909;43.644;-79.438;2024-02-26T05:24:47;3.95;;;3.17;;
33579;SDS011;19909;43.644;-79.438;2024-02-26T05:27:13;3.80;;;3.42;;
33579;SDS011;19909;43.644;-79.438;2024-02-26T05:29:39;3.90;;;3.50;;
33579;SDS011;19909;43.644;-79.438;2024-02-26T05:32:06;3.65;;;3.17;;
33579;SDS011;19909;43.644;-79.438;2024-02-26T05:34:33;3.28;;;2.97;;
33579;SDS011;19909;43.644;-79.438;2024-02-26T05:36:59;3.92;;;3.53;;
33579;SDS011;19909;43.644;-79.438;2024-02-26T05:39:25;4.00;;;3.60;;
33579;SDS011;19909;43.644;-79.438;2024-02-26T05:41:52;3.55;;;3.25;;
33579;SDS011;19909;43.644;-79.438;2024-02-26T05:44:20;2.75;;;2.55;;
33579;SDS011;19909;43.644;-79.438;2024-02-26T05:46:48;3.58;;;2.88;;
33579;SDS011;19909;43.644;-79.438;2024-02-26T05:49:14;2.97;;;2.67;;
33579;SDS011;19909;43.644;-79.438;2024-02-26T05:51:40;3.47;;;3.17;;
33579;SDS011;19909;43.644;-79.438;2024-02-26T05:54:07;3.58;;;2.75;;
33579;SDS011;19909;43.644;-79.438;2024-02-26T05:56:33;3.38;;;2.78;;
33579;SDS011;19909;43.644;-79.438;2024-02-26T05:58:59;3.17;;;2.85;;
33579;SDS011;19909;43.644;-79.438;2024-02-26T06:01:25;3.05;;;2.75;;
33579;SDS011;19909;43.644;-79.438;2024-02-26T06:03:52;3.53;;;3.10;;
33579;SDS011;19909;43.644;-79.438;2024-02-26T06:06:18;2.63;;;2.42;;
33579;SDS011;19909;43.644;-79.438;2024-02-26T06:08:48;2.55;;;2.35;;
33579;SDS011;19909;43.644;-79.438;2024-02-26T06:11:14;2.50;;;2.13;;
33579;SDS011;19909;43.644;-79.438;2024-02-26T06:13:40;3.42;;;2.10;;
33579;SDS011;19909;43.644;-79.438;2024-02-26T06:16:07;2.50;;;2.30;;
33579;SDS011;19909;43.644;-79.438;2024-02-26T06:18:34;2.45;;;2.20;;
33579;SDS011;19909;43.644;-79.438;2024-02-26T06:21:01;2.47;;;2.28;;
33579;SDS011;19909;43.644;-79.438;2024-02-26T06:23:27;2.20;;;2.00;;
33579;SDS011;19909;43.644;-79.438;2024-02-26T06:25:55;2.30;;;1.90;;
33579;SDS011;19909;43.644;-79.438;2024-02-26T06:28:21;2.97;;;2.25;;
33579;SDS011;19909;43.644;-79.438;2024-02-26T06:30:47;2.90;;;1.70;;
33579;SDS011;19909;43.644;-79.438;2024-02-26T06:33:15;2.38;;;2.15;;
33579;SDS011;19909;43.644;-79.438;2024-02-26T06:35:41;2.08;;;1.67;;
33579;SDS011;19909;43.644;-79.438;2024-02-26T06:38:09;2.38;;;1.73;;
33579;SDS011;19909;43.644;-79.438;2024-02-26T06:40:38;2.17;;;1.98;;
33579;SDS011;19909;43.644;-79.438;2024-02-26T06:43:04;2.20;;;2.00;;
33579;SDS011;19909;43.644;-79.438;2024-02-26T06:45:31;3.00;;;1.83;;
33579;SDS011;19909;43.644;-79.438;2024-02-26T06:47:57;2.05;;;1.77;;
33579;SDS011;19909;43.644;-79.438;2024-02-26T06:50:24;1.75;;;1.55;;
33579;SDS011;19909;43.644;-79.438;2024-02-26T06:52:50;2.53;;;1.98;;
33579;SDS011;19909;43.644;-79.438;2024-02-26T06:55:16;2.08;;;1.77;;
33579;SDS011;19909;43.644;-79.438;2024-02-26T06:57:43;2.05;;;1.85;;
33579;SDS011;19909;43.644;-79.438;2024-02-26T07:00:09;2.47;;;2.28;;
33579;SDS011;19909;43.644;-79.438;2024-02-26T07:02:40;2.08;;;1.88;;
33579;SDS011;19909;43.644;-79.438;2024-02-26T07:05:06;2.63;;;2.10;;
33579;SDS011;19909;43.644;-79.438;2024-02-26T07:07:33;2.30;;;2.05;;
33579;SDS011;19909;43.644;-79.438;2024-02-26T07:09:59;2.67;;;2.20;;
33579;SDS011;19909;43.644;-79.438;2024-02-26T07:12:29;2.17;;;1.95;;
33579;SDS011;19909;43.644;-79.438;2024-02-26T07:14:57;2.33;;;1.80;;
33579;SDS011;19909;43.644;-79.438;2024-02-26T07:17:23;2.13;;;1.90;;
33579;SDS011;19909;43.644;-79.438;2024-02-26T07:19:49;2.03;;;1.83;;
33579;SDS011;19909;43.644;-79.438;2024-02-26T07:22:15;1.92;;;1.73;;
33579;SDS011;19909;43.644;-79.438;2024-02-26T07:24:42;1.70;;;1.60;;
33579;SDS011;19909;43.644;-79.438;2024-02-26T07:27:09;1.60;;;1.50;;
33579;SDS011;19909;43.644;-79.438;2024-02-26T07:29:35;2.22;;;1.73;;
33579;SDS011;19909;43.644;-79.438;2024-02-26T07:32:02;2.28;;;1.70;;
33579;SDS011;19909;43.644;-79.438;2024-02-26T07:34:28;1.88;;;1.52;;
33579;SDS011;19909;43.644;-79.438;2024-02-26T07:36:56;2.13;;;1.63;;
33579;SDS011;19909;43.644;-79.438;2024-02-26T07:39:22;1.83;;;1.60;;
33579;SDS011;19909;43.644;-79.438;2024-02-26T07:41:48;2.15;;;1.50;;
33579;SDS011;19909;43.644;-79.438;2024-02-26T07:44:17;2.30;;;1.33;;
33579;SDS011;19909;43.644;-79.438;2024-02-26T07:46:43;2.45;;;1.70;;
33579;SDS011;19909;43.644;-79.438;2024-02-26T07:49:10;2.50;;;1.30;;
33579;SDS011;19909;43.644;-79.438;2024-02-26T07:51:36;1.77;;;1.40;;
33579;SDS011;19909;43.644;-79.438;2024-02-26T07:54:03;1.40;;;1.30;;
33579;SDS011;19909;43.644;-79.438;2024-02-26T07:56:30;1.67;;;1.42;;
33579;SDS011;19909;43.644;-79.438;2024-02-26T07:58:56;2.22;;;1.50;;
33579;SDS011;19909;43.644;-79.438;2024-02-26T08:01:22;2.08;;;1.55;;
33579;SDS011;19909;43.644;-79.438;2024-02-26T08:03:51;1.85;;;1.55;;
33579;SDS011;19909;43.644;-79.438;2024-02-26T08:06:18;2.63;;;1.35;;
33579;SDS011;19909;43.644;-79.438;2024-02-26T08:08:44;1.60;;;1.27;;
33579;SDS011;19909;43.644;-79.438;2024-02-26T08:11:11;1.58;;;1.27;;
33579;SDS011;19909;43.644;-79.438;2024-02-26T08:13:39;2.22;;;1.35;;
33579;SDS011;19909;43.644;-79.438;2024-02-26T08:16:06;2.40;;;1.30;;
33579;SDS011;19909;43.644;-79.438;2024-02-26T08:18:32;1.42;;;1.13;;
33579;SDS011;19909;43.644;-79.438;2024-02-26T08:20:59;2.42;;;1.40;;
33579;SDS011;19909;43.644;-79.438;2024-02-26T08:23:25;1.30;;;1.20;;
33579;SDS011;19909;43.644;-79.438;2024-02-26T08:25:51;3.00;;;1.80;;
33579;SDS011;19909;43.644;-79.438;2024-02-26T08:28:18;1.77;;;1.58;;
33579;SDS011;19909;43.644;-79.438;2024-02-26T08:30:44;2.97;;;1.65;;
33579;SDS011;19909;43.644;-79.438;2024-02-26T08:33:11;1.77;;;1.52;;
33579;SDS011;19909;43.644;-79.438;2024-02-26T08:35:38;1.90;;;1.40;;
33579;SDS011;19909;43.644;-79.438;2024-02-26T08:38:05;1.70;;;1.50;;
33579;SDS011;19909;43.644;-79.438;2024-02-26T08:40:31;1.60;;;1.40;;
33579;SDS011;19909;43.644;-79.438;2024-02-26T08:42:57;2.03;;;1.67;;
33579;SDS011;19909;43.644;-79.438;2024-02-26T08:45:23;1.50;;;1.40;;
33579;SDS011;19909;43.644;-79.438;2024-02-26T08:47:51;1.60;;;1.02;;
33579;SDS011;19909;43.644;-79.438;2024-02-26T08:50:17;1.50;;;1.40;;
33579;SDS011;19909;43.644;-79.438;2024-02-26T08:52:44;1.58;;;1.38;;
33579;SDS011;19909;43.644;-79.438;2024-02-26T08:55:14;1.42;;;1.33;;
33579;SDS011;19909;43.644;-79.438;2024-02-26T08:57:40;1.70;;;1.60;;
33579;SDS011;19909;43.644;-79.438;2024-02-26T09:00:06;1.48;;;1.30;;
33579;SDS011;19909;43.644;-79.438;2024-02-26T09:02:33;1.80;;;1.50;;
33579;SDS011;19909;43.644;-79.438;2024-02-26T09:04:59;2.03;;;1.60;;
33579;SDS011;19909;43.644;-79.438;2024-02-26T09:07:26;1.88;;;1.50;;
33579;SDS011;19909;43.644;-79.438;2024-02-26T09:09:52;1.85;;;1.60;;
33579;SDS011;19909;43.644;-79.438;2024-02-26T09:12:19;2.38;;;1.50;;
33579;SDS011;19909;43.644;-79.438;2024-02-26T09:14:46;1.20;;;1.10;;
33579;SDS011;19909;43.644;-79.438;2024-02-26T09:17:12;2.20;;;1.42;;
33579;SDS011;19909;43.644;-79.438;2024-02-26T09:19:38;1.05;;;0.95;;
33579;SDS011;19909;43.644;-79.438;2024-02-26T09:22:05;2.58;;;1.30;;
33579;SDS011;19909;43.644;-79.438;2024-02-26T09:24:32;1.70;;;1.55;;
33579;SDS011;19909;43.644;-79.438;2024-02-26T09:26:58;2.35;;;1.80;;
33579;SDS011;19909;43.644;-79.438;2024-02-26T09:29:25;4.40;;;1.77;;
33579;SDS011;19909;43.644;-79.438;2024-02-26T09:31:51;2.72;;;1.30;;
33579;SDS011;19909;43.644;-79.438;2024-02-26T09:34:17;3.17;;;2.00;;
33579;SDS011;19909;43.644;-79.438;2024-02-26T09:36:44;1.95;;;1.80;;
33579;SDS011;19909;43.644;-79.438;2024-02-26T09:39:10;2.03;;;1.73;;
33579;SDS011;19909;43.644;-79.438;2024-02-26T09:41:36;2.17;;;1.95;;
33579;SDS011;19909;43.644;-79.438;2024-02-26T09:44:04;1.85;;;1.40;;
33579;SDS011;19909;43.644;-79.438;2024-02-26T09:46:30;1.70;;;1.40;;
33579;SDS011;19909;43.644;-79.438;2024-02-26T09:48:57;2.13;;;1.67;;
33579;SDS011;19909;43.644;-79.438;2024-02-26T09:51:24;1.70;;;1.58;;
33579;SDS011;19909;43.644;-79.438;2024-02-26T09:53:51;1.50;;;1.30;;
33579;SDS011;19909;43.644;-79.438;2024-02-26T09:56:18;2.10;;;1.75;;
33579;SDS011;19909;43.644;-79.438;2024-02-26T09:58:46;1.77;;;1.60;;
33579;SDS011;19909;43.644;-79.438;2024-02-26T10:01:18;1.75;;;1.30;;
33579;SDS011;19909;43.644;-79.438;2024-02-26T10:03:48;2.58;;;1.85;;
33579;SDS011;19909;43.644;-79.438;2024-02-26T10:06:21;2.30;;;1.70;;
33579;SDS011;19909;43.644;-79.438;2024-02-26T10:08:47;2.28;;;1.75;;
33579;SDS011;19909;43.644;-79.438;2024-02-26T10:11:14;1.88;;;1.60;;
33579;SDS011;19909;43.644;-79.438;2024-02-26T10:13:41;2.03;;;1.83;;
33579;SDS011;19909;43.644;-79.438;2024-02-26T10:16:08;2.15;;;1.80;;
33579;SDS011;19909;43.644;-79.438;2024-02-26T10:18:47;1.83;;;1.30;;
33579;SDS011;19909;43.644;-79.438;2024-02-26T10:21:19;1.40;;;1.30;;
33579;SDS011;19909;43.644;-79.438;2024-02-26T10:23:46;1.40;;;1.30;;
33579;SDS011;19909;43.644;-79.438;2024-02-26T10:26:14;1.90;;;1.70;;
33579;SDS011;19909;43.644;-79.438;2024-02-26T10:28:41;1.30;;;1.20;;
33579;SDS011;19909;43.644;-79.438;2024-02-26T10:31:08;3.30;;;1.75;;
33579;SDS011;19909;43.644;-79.438;2024-02-26T10:33:36;3.08;;;1.92;;
33579;SDS011;19909;43.644;-79.438;2024-02-26T10:36:04;2.95;;;1.77;;
33579;SDS011;19909;43.644;-79.438;2024-02-26T10:38:31;2.63;;;1.85;;
33579;SDS011;19909;43.644;-79.438;2024-02-26T10:40:58;2.20;;;1.63;;
33579;SDS011;19909;43.644;-79.438;2024-02-26T10:43:27;2.03;;;1.83;;
33579;SDS011;19909;43.644;-79.438;2024-02-26T10:45:56;2.10;;;1.63;;
33579;SDS011;19909;43.644;-79.438;2024-02-26T10:48:23;3.42;;;1.65;;
33579;SDS011;19909;43.644;-79.438;2024-02-26T10:50:49;1.40;;;1.30;;
33579;SDS011;19909;43.644;-79.438;2024-02-26T10:53:21;2.20;;;1.38;;
33579;SDS011;19909;43.644;-79.438;2024-02-26T10:55:54;1.40;;;1.27;;
33579;SDS011;19909;43.644;-79.438;2024-02-26T10:58:31;2.08;;;1.80;;
33579;SDS011;19909;43.644;-79.438;2024-02-26T11:00:58;1.98;;;1.75;;
33579;SDS011;19909;43.644;-79.438;2024-02-26T11:03:25;2.88;;;2.00;;
33579;SDS011;19909;43.644;-79.438;2024-02-26T11:05:53;2.10;;;1.75;;
33579;SDS011;19909;43.644;-79.438;2024-02-26T11:08:21;2.47;;;1.80;;
33579;SDS011;19909;43.644;-79.438;2024-02-26T11:10:49;2.17;;;1.73;;
33579;SDS011;19909;43.644;-79.438;2024-02-26T11:13:18;2.13;;;1.88;;
33579;SDS011;19909;43.644;-79.438;2024-02-26T11:15:46;1.63;;;1.52;;
33579;SDS011;19909;43.644;-79.438;2024-02-26T11:18:17;1.58;;;1.33;;
33579;SDS011;19909;43.644;-79.438;2024-02-26T11:20:46;2.08;;;1.70;;
33579;SDS011;19909;43.644;-79.438;2024-02-26T11:23:14;2.03;;;1.63;;
33579;SDS011;19909;43.644;-79.438;2024-02-26T11:25:41;2.72;;;1.40;;
33579;SDS011;19909;43.644;-79.438;2024-02-26T11:28:10;1.20;;;1.10;;
33579;SDS011;19909;43.644;-79.438;2024-02-26T11:30:39;1.65;;;1.48;;
33579;SDS011;19909;43.644;-79.438;2024-02-26T11:33:10;2.03;;;1.77;;
33579;SDS011;19909;43.644;-79.438;2024-02-26T11:35:37;2.55;;;2.13;;
33579;SDS011;19909;43.644;-79.438;2024-02-26T11:38:04;2.15;;;1.95;;
33579;SDS011;19909;43.644;-79.438;2024-02-26T11:40:32;2.22;;;1.63;;
33579;SDS011;19909;43.644;-79.438;2024-02-26T11:43:07;2.10;;;1.90;;
33579;SDS011;19909;43.644;-79.438;2024-02-26T11:48:29;2.20;;;2.00;;
33579;SDS011;19909;43.644;-79.438;2024-02-26T11:50:55;2.15;;;1.80;;
33579;SDS011;19909;43.644;-79.438;2024-02-26T11:53:25;1.92;;;1.70;;
33579;SDS011;19909;43.644;-79.438;2024-02-26T11:59:03;1.83;;;1.50;;
33579;SDS011;19909;43.644;-79.438;2024-02-26T12:01:40;2.03;;;1.02;;
33579;SDS011;19909;43.644;-79.438;2024-02-26T12:04:07;1.38;;;1.23;;
33579;SDS011;19909;43.644;-79.438;2024-02-26T12:06:43;1.63;;;1.15;;
33579;SDS011;19909;43.644;-79.438;2024-02-26T12:09:11;1.75;;;1.58;;
33579;SDS011;19909;43.644;-79.438;2024-02-26T12:11:39;2.50;;;1.88;;
33579;SDS011;19909;43.644;-79.438;2024-02-26T12:14:09;1.70;;;1.60;;
33579;SDS011;19909;43.644;-79.438;2024-02-26T12:16:36;2.03;;;1.70;;
33579;SDS011;19909;43.644;-79.438;2024-02-26T12:19:05;1.95;;;1.63;;
33579;SDS011;19909;43.644;-79.438;2024-02-26T12:21:33;2.50;;;1.98;;
33579;SDS011;19909;43.644;-79.438;2024-02-26T12:24:13;2.80;;;2.50;;
33579;SDS011;19909;43.644;-79.438;2024-02-26T12:26:41;2.38;;;1.77;;
33579;SDS011;19909;43.644;-79.438;2024-02-26T12:29:08;2.22;;;1.73;;
33579;SDS011;19909;43.644;-79.438;2024-02-26T12:31:36;2.80;;;1.50;;
33579;SDS011;19909;43.644;-79.438;2024-02-26T12:34:04;2.10;;;1.40;;
33579;SDS011;19909;43.644;-79.438;2024-02-26T12:36:30;2.35;;;1.63;;
33579;SDS011;19909;43.644;-79.438;2024-02-26T12:38:57;3.03;;;1.40;;
33579;SDS011;19909;43.644;-79.438;2024-02-26T12:41:25;1.50;;;1.35;;
33579;SDS011;19909;43.644;-79.438;2024-02-26T12:43:53;2.45;;;1.85;;
33579;SDS011;19909;43.644;-79.438;2024-02-26T12:46:19;1.92;;;1.45;;
33579;SDS011;19909;43.644;-79.438;2024-02-26T12:48:46;2.00;;;1.58;;
33579;SDS011;19909;43.644;-79.438;2024-02-26T12:51:12;2.85;;;1.80;;
33579;SDS011;19909;43.644;-79.438;2024-02-26T12:53:41;3.63;;;1.98;;
33579;SDS011;19909;43.644;-79.438;2024-02-26T12:56:07;2.03;;;1.80;;
33579;SDS011;19909;43.644;-79.438;2024-02-26T12:58:35;4.38;;;2.22;;
33579;SDS011;19909;43.644;-79.438;2024-02-26T13:01:05;2.95;;;2.20;;
33579;SDS011;19909;43.644;-79.438;2024-02-26T13:03:33;4.35;;;1.98;;
33579;SDS011;19909;43.644;-79.438;2024-02-26T13:06:01;2.38;;;1.98;;
33579;SDS011;19909;43.644;-79.438;2024-02-26T13:08:28;2.63;;;1.88;;
33579;SDS011;19909;43.644;-79.438;2024-02-26T13:10:54;2.58;;;1.85;;
33579;SDS011;19909;43.644;-79.438;2024-02-26T13:13:22;2.65;;;1.70;;
33579;SDS011;19909;43.644;-79.438;2024-02-26T13:15:49;2.33;;;1.77;;
33579;SDS011;19909;43.644;-79.438;2024-02-26T13:18:15;1.95;;;1.58;;
33579;SDS011;19909;43.644;-79.438;2024-02-26T13:20:41;4.65;;;1.98;;
33579;SDS011;19909;43.644;-79.438;2024-02-26T13:23:09;2.60;;;1.77;;
33579;SDS011;19909;43.644;-79.438;2024-02-26T13:25:38;1.52;;;1.25;;
33579;SDS011;19909;43.644;-79.438;2024-02-26T13:28:17;4.10;;;1.58;;
33579;SDS011;19909;43.644;-79.438;2024-02-26T13:30:54;2.10;;;1.48;;
33579;SDS011;19909;43.644;-79.438;2024-02-26T13:33:22;4.22;;;1.67;;
33579;SDS011;19909;43.644;-79.438;2024-02-26T13:35:49;2.25;;;1.80;;
33579;SDS011;19909;43.644;-79.438;2024-02-26T13:38:16;2.50;;;1.60;;
33579;SDS011;19909;43.644;-79.438;2024-02-26T13:40:43;2.97;;;1.92;;
33579;SDS011;19909;43.644;-79.438;2024-02-26T13:43:10;2.70;;;1.90;;
33579;SDS011;19909;43.644;-79.438;2024-02-26T13:45:37;2.45;;;1.58;;
33579;SDS011;19909;43.644;-79.438;2024-02-26T13:48:05;1.90;;;1.50;;
33579;SDS011;19909;43.644;-79.438;2024-02-26T13:50:33;2.17;;;1.30;;
33579;SDS011;19909;43.644;-79.438;2024-02-26T13:52:59;1.50;;;1.30;;
33579;SDS011;19909;43.644;-79.438;2024-02-26T13:55:25;3.22;;;1.83;;
33579;SDS011;19909;43.644;-79.438;2024-02-26T13:57:55;2.78;;;1.13;;
33579;SDS011;19909;43.644;-79.438;2024-02-26T14:00:22;2.22;;;1.88;;
33579;SDS011;19909;43.644;-79.438;2024-02-26T14:02:49;3.70;;;1.40;;
33579;SDS011;19909;43.644;-79.438;2024-02-26T14:05:16;2.38;;;1.50;;
33579;SDS011;19909;43.644;-79.438;2024-02-26T14:07:42;2.58;;;1.30;;
33579;SDS011;19909;43.644;-79.438;2024-02-26T14:10:12;1.65;;;1.40;;
33579;SDS011;19909;43.644;-79.438;2024-02-26T14:12:38;1.70;;;1.00;;
33579;SDS011;19909;43.644;-79.438;2024-02-26T14:15:06;1.40;;;1.00;;
33579;SDS011;19909;43.644;-79.438;2024-02-26T14:17:33;1.70;;;1.08;;
33579;SDS011;19909;43.644;-79.438;2024-02-26T14:20:01;1.48;;;1.02;;
33579;SDS011;19909;43.644;-79.438;2024-02-26T14:22:28;1.60;;;0.85;;